To NAV CANADA Home Page Login to a new session Search on AWWS site Disclaimer Vers la page française équivalente Tips FAQ What's new on the site To the Forecasts and Observations / NOTAM section To "File a Flight Plan" website Publications and other links Update of the User's profile FIC Telephone Numbers My Weather Data Folder Route Weather Data Regional Weather Data Local Weather Data To the Forecasts and Observations / NOTAM section
Request Generated 12/17/2018 at 01:25:25 UTC . Weather information available at that time is displayed.


Go to a specific product

Save this request

NOTAM

NOTAM


SIGMET
To the Product Selector

SIGMETS GFACN32

GFACN32 - No SIGMET bulletins in effect



AIRMET
To the Product Selector

AIRMETS GFACN32

GFACN32 - No AIRMET bulletins in effect



PIREP
To the Product Selector

FIR_WINNIPEG (WG)


UACN01 CYQT 162314
WG
UUA /OV CYRS /TM 2310 /FLDURD /TP SW4 /TB MDT-SEV /RM LLWS AT 100 FT
AGL. +/- 20 KTS ON APCH.


METAR/TAF
To the Product Selector

REGINA INTL/SK    

METAR CYQR 170100Z 14009KT 15SM SKC M09/M11 A3014 RMK SLP249=
METAR CYQR 170000Z 14009KT 15SM FEW250 M08/M11 A3014 RMK CI1 SLP248=
METAR CYQR 162300Z 11009KT 15SM BKN250 M07/M11 A3014 RMK CI7 SLP249=

TAF CYQR 162338Z 1700/1724 12010KT P6SM SCT100 BKN250
BECMG 1704/1706 13018KT
BECMG 1716/1718 16010KT
RMK NXT FCST BY 170600Z=

MOOSE JAW/AIR VICE MARSHAL C.M. MCEWEN/SK    

CYMJ - METAR not available

*** REMARK        : Forecast period has ended; this was the last TAF issued
*** REMARQUE : La période de prévision est échue; ceci était le dernier TAF qui a été émis
TAF AMD CYMJ 150117Z 1500/1512 FCST CNCLD DUE END OF FLYING PROGRAM
RMK NXT FCST WILL BE ISSUED AT 171115Z=


RADAR PCPN RATE
To the Product Selector
Pacific Canada      Western Canada     

SATELLITE VISIBLE
To the Product Selector
West Canada      

SATELLITE INFRARED
To the Product Selector
West Canada     

GRAPHICAL FA CLOUDS & WEATHER FORECASTS
To the Product Selector
Graphical FA gfacn32      

GRAPHICAL FA ICING, TURBULENCE & FREEZING LEVEL FORECASTS
To the Product Selector
Graphical FA gfacn32      

FDTEXT Low Level FD. Temperatures are not forecast for the 3,000-foot level.
To the Product Selector
STN YQR - REGINA. SASK for use 3000 6000 9000 12000 18000
FDCN01 CWAO FCST BASED ON 161200 DATA VALID 161800 17-21 3023-04 2828-06 2733-07 2843-16
FDCN02 CWAO FCST BASED ON 161200 DATA VALID 170000 21-06 2413-02 2727-04 2941-05 2956-13
FDCN03 CWAO FCST BASED ON 161200 DATA VALID 171200 06-17 2520+05 2536-01 2637-04 2928-14



Your time UTC time
Weather data provided by Environment Canada and NAV CANADA